sensor_id;sensor_type;location;lat;lon;timestamp;P1;durP1;ratioP1;P2;durP2;ratioP2
48925;SDS011;39838;59.938;30.642;2022-07-29T00:01:48;9.02;;;4.60;;
48925;SDS011;39838;59.938;30.642;2022-07-29T00:04:17;7.05;;;5.00;;
48925;SDS011;39838;59.938;30.642;2022-07-29T00:06:44;8.70;;;4.50;;
48925;SDS011;39838;59.938;30.642;2022-07-29T00:09:12;8.32;;;4.15;;
48925;SDS011;39838;59.938;30.642;2022-07-29T00:11:39;8.20;;;4.40;;
48925;SDS011;39838;59.938;30.642;2022-07-29T00:14:07;7.43;;;4.60;;
48925;SDS011;39838;59.938;30.642;2022-07-29T00:16:34;7.57;;;4.28;;
48925;SDS011;39838;59.938;30.642;2022-07-29T00:19:01;6.85;;;4.20;;
48925;SDS011;39838;59.938;30.642;2022-07-29T00:21:28;7.38;;;4.50;;
48925;SDS011;39838;59.938;30.642;2022-07-29T00:23:55;10.65;;;6.15;;
48925;SDS011;39838;59.938;30.642;2022-07-29T00:26:24;11.85;;;7.72;;
48925;SDS011;39838;59.938;30.642;2022-07-29T00:28:53;10.95;;;8.13;;
48925;SDS011;39838;59.938;30.642;2022-07-29T00:31:20;12.57;;;9.88;;
48925;SDS011;39838;59.938;30.642;2022-07-29T00:33:47;13.93;;;11.32;;
48925;SDS011;39838;59.938;30.642;2022-07-29T00:36:14;13.35;;;9.10;;
48925;SDS011;39838;59.938;30.642;2022-07-29T00:38:40;14.23;;;7.93;;
48925;SDS011;39838;59.938;30.642;2022-07-29T00:41:10;10.60;;;7.30;;
48925;SDS011;39838;59.938;30.642;2022-07-29T00:43:38;10.75;;;6.47;;
48925;SDS011;39838;59.938;30.642;2022-07-29T00:46:06;8.88;;;6.13;;
48925;SDS011;39838;59.938;30.642;2022-07-29T00:48:33;8.55;;;6.18;;
48925;SDS011;39838;59.938;30.642;2022-07-29T00:51:01;9.65;;;5.90;;
48925;SDS011;39838;59.938;30.642;2022-07-29T00:53:30;10.10;;;5.63;;
48925;SDS011;39838;59.938;30.642;2022-07-29T00:55:57;8.82;;;5.35;;
48925;SDS011;39838;59.938;30.642;2022-07-29T00:58:25;9.25;;;5.15;;
48925;SDS011;39838;59.938;30.642;2022-07-29T01:00:54;7.53;;;4.90;;
48925;SDS011;39838;59.938;30.642;2022-07-29T01:03:21;10.52;;;5.35;;
48925;SDS011;39838;59.938;30.642;2022-07-29T01:05:48;10.00;;;5.07;;
48925;SDS011;39838;59.938;30.642;2022-07-29T01:08:16;8.40;;;5.25;;
48925;SDS011;39838;59.938;30.642;2022-07-29T01:10:44;15.63;;;5.68;;
48925;SDS011;39838;59.938;30.642;2022-07-29T01:13:13;12.57;;;4.97;;
48925;SDS011;39838;59.938;30.642;2022-07-29T01:15:43;9.93;;;4.28;;
48925;SDS011;39838;59.938;30.642;2022-07-29T01:18:14;11.57;;;4.80;;
48925;SDS011;39838;59.938;30.642;2022-07-29T01:20:51;7.60;;;4.47;;
48925;SDS011;39838;59.938;30.642;2022-07-29T01:23:42;8.13;;;4.65;;
48925;SDS011;39838;59.938;30.642;2022-07-29T01:26:23;10.55;;;4.53;;
48925;SDS011;39838;59.938;30.642;2022-07-29T01:29:01;11.05;;;4.55;;
48925;SDS011;39838;59.938;30.642;2022-07-29T01:31:31;10.60;;;4.65;;
48925;SDS011;39838;59.938;30.642;2022-07-29T01:34:05;6.55;;;4.50;;
48925;SDS011;39838;59.938;30.642;2022-07-29T01:36:35;10.65;;;4.43;;
48925;SDS011;39838;59.938;30.642;2022-07-29T01:39:08;7.88;;;4.43;;
48925;SDS011;39838;59.938;30.642;2022-07-29T01:41:40;7.20;;;4.30;;
48925;SDS011;39838;59.938;30.642;2022-07-29T01:44:16;11.15;;;4.47;;
48925;SDS011;39838;59.938;30.642;2022-07-29T01:46:48;8.57;;;4.55;;
48925;SDS011;39838;59.938;30.642;2022-07-29T01:49:20;8.85;;;4.30;;
48925;SDS011;39838;59.938;30.642;2022-07-29T01:51:51;6.47;;;4.10;;
48925;SDS011;39838;59.938;30.642;2022-07-29T01:54:22;6.63;;;4.15;;
48925;SDS011;39838;59.938;30.642;2022-07-29T01:56:55;6.15;;;4.00;;
48925;SDS011;39838;59.938;30.642;2022-07-29T01:59:26;5.57;;;3.85;;
48925;SDS011;39838;59.938;30.642;2022-07-29T02:01:57;6.55;;;4.43;;
48925;SDS011;39838;59.938;30.642;2022-07-29T02:04:25;5.82;;;3.85;;
48925;SDS011;39838;59.938;30.642;2022-07-29T02:06:57;6.55;;;3.92;;
48925;SDS011;39838;59.938;30.642;2022-07-29T02:09:28;6.25;;;3.80;;
48925;SDS011;39838;59.938;30.642;2022-07-29T02:11:57;9.50;;;3.83;;
48925;SDS011;39838;59.938;30.642;2022-07-29T02:14:28;6.82;;;3.70;;
48925;SDS011;39838;59.938;30.642;2022-07-29T02:16:59;5.32;;;3.60;;
48925;SDS011;39838;59.938;30.642;2022-07-29T02:19:29;9.05;;;4.28;;
48925;SDS011;39838;59.938;30.642;2022-07-29T02:21:58;6.45;;;3.42;;
48925;SDS011;39838;59.938;30.642;2022-07-29T02:24:26;7.03;;;3.28;;
48925;SDS011;39838;59.938;30.642;2022-07-29T02:26:55;5.18;;;3.70;;
48925;SDS011;39838;59.938;30.642;2022-07-29T02:29:24;5.32;;;3.38;;
48925;SDS011;39838;59.938;30.642;2022-07-29T02:31:55;5.82;;;3.33;;
48925;SDS011;39838;59.938;30.642;2022-07-29T02:34:23;7.53;;;3.50;;
48925;SDS011;39838;59.938;30.642;2022-07-29T02:36:52;5.57;;;3.50;;
48925;SDS011;39838;59.938;30.642;2022-07-29T02:39:22;5.50;;;3.35;;
48925;SDS011;39838;59.938;30.642;2022-07-29T02:41:51;4.60;;;2.85;;
48925;SDS011;39838;59.938;30.642;2022-07-29T02:44:21;5.43;;;2.88;;
48925;SDS011;39838;59.938;30.642;2022-07-29T02:46:52;8.13;;;3.53;;
48925;SDS011;39838;59.938;30.642;2022-07-29T02:49:29;5.75;;;3.38;;
48925;SDS011;39838;59.938;30.642;2022-07-29T02:52:02;6.47;;;3.40;;
48925;SDS011;39838;59.938;30.642;2022-07-29T02:54:31;5.88;;;3.58;;
48925;SDS011;39838;59.938;30.642;2022-07-29T02:57:08;8.57;;;3.53;;
48925;SDS011;39838;59.938;30.642;2022-07-29T02:59:39;7.22;;;4.10;;
48925;SDS011;39838;59.938;30.642;2022-07-29T03:02:12;6.80;;;3.72;;
48925;SDS011;39838;59.938;30.642;2022-07-29T03:04:41;5.75;;;3.58;;
48925;SDS011;39838;59.938;30.642;2022-07-29T03:07:10;6.60;;;3.80;;
48925;SDS011;39838;59.938;30.642;2022-07-29T03:09:40;7.47;;;3.83;;
48925;SDS011;39838;59.938;30.642;2022-07-29T03:12:08;5.10;;;3.63;;
48925;SDS011;39838;59.938;30.642;2022-07-29T03:14:37;7.70;;;3.50;;
48925;SDS011;39838;59.938;30.642;2022-07-29T03:17:05;7.03;;;4.15;;
48925;SDS011;39838;59.938;30.642;2022-07-29T03:19:35;7.13;;;4.13;;
48925;SDS011;39838;59.938;30.642;2022-07-29T03:22:02;10.43;;;4.38;;
48925;SDS011;39838;59.938;30.642;2022-07-29T03:24:31;7.13;;;4.53;;
48925;SDS011;39838;59.938;30.642;2022-07-29T03:26:59;8.07;;;4.65;;
48925;SDS011;39838;59.938;30.642;2022-07-29T03:29:26;11.30;;;4.25;;
48925;SDS011;39838;59.938;30.642;2022-07-29T03:31:54;9.00;;;4.63;;
48925;SDS011;39838;59.938;30.642;2022-07-29T03:34:21;11.70;;;4.50;;
48925;SDS011;39838;59.938;30.642;2022-07-29T03:36:50;8.45;;;4.30;;
48925;SDS011;39838;59.938;30.642;2022-07-29T03:39:18;9.30;;;4.25;;
48925;SDS011;39838;59.938;30.642;2022-07-29T03:41:48;9.95;;;4.72;;
48925;SDS011;39838;59.938;30.642;2022-07-29T03:44:18;9.85;;;4.22;;
48925;SDS011;39838;59.938;30.642;2022-07-29T03:46:48;9.75;;;4.57;;
48925;SDS011;39838;59.938;30.642;2022-07-29T03:49:17;7.82;;;4.32;;
48925;SDS011;39838;59.938;30.642;2022-07-29T03:51:46;12.57;;;4.97;;
48925;SDS011;39838;59.938;30.642;2022-07-29T03:54:15;6.20;;;4.10;;
48925;SDS011;39838;59.938;30.642;2022-07-29T03:56:42;7.85;;;4.70;;
48925;SDS011;39838;59.938;30.642;2022-07-29T03:59:12;8.68;;;4.30;;
48925;SDS011;39838;59.938;30.642;2022-07-29T04:01:40;8.05;;;4.05;;
48925;SDS011;39838;59.938;30.642;2022-07-29T04:04:08;11.55;;;4.55;;
48925;SDS011;39838;59.938;30.642;2022-07-29T04:06:39;8.73;;;4.10;;
48925;SDS011;39838;59.938;30.642;2022-07-29T04:09:07;10.73;;;4.40;;
48925;SDS011;39838;59.938;30.642;2022-07-29T04:11:36;7.45;;;4.35;;
48925;SDS011;39838;59.938;30.642;2022-07-29T04:14:04;9.20;;;4.90;;
48925;SDS011;39838;59.938;30.642;2022-07-29T04:16:31;8.80;;;4.63;;
48925;SDS011;39838;59.938;30.642;2022-07-29T04:18:59;8.40;;;4.47;;
48925;SDS011;39838;59.938;30.642;2022-07-29T04:21:26;8.82;;;4.47;;
48925;SDS011;39838;59.938;30.642;2022-07-29T04:23:53;7.15;;;4.80;;
48925;SDS011;39838;59.938;30.642;2022-07-29T04:26:20;8.10;;;4.50;;
48925;SDS011;39838;59.938;30.642;2022-07-29T04:28:49;8.45;;;4.50;;
48925;SDS011;39838;59.938;30.642;2022-07-29T04:31:16;7.80;;;4.18;;
48925;SDS011;39838;59.938;30.642;2022-07-29T04:33:43;8.90;;;4.85;;
48925;SDS011;39838;59.938;30.642;2022-07-29T04:36:10;11.60;;;4.03;;
48925;SDS011;39838;59.938;30.642;2022-07-29T04:38:37;7.70;;;4.20;;
48925;SDS011;39838;59.938;30.642;2022-07-29T04:41:05;9.30;;;4.30;;
48925;SDS011;39838;59.938;30.642;2022-07-29T04:43:33;7.75;;;4.25;;
48925;SDS011;39838;59.938;30.642;2022-07-29T04:46:02;12.25;;;4.45;;
48925;SDS011;39838;59.938;30.642;2022-07-29T04:48:29;8.10;;;4.63;;
48925;SDS011;39838;59.938;30.642;2022-07-29T04:50:57;8.23;;;4.22;;
48925;SDS011;39838;59.938;30.642;2022-07-29T04:53:24;9.77;;;5.60;;
48925;SDS011;39838;59.938;30.642;2022-07-29T04:55:51;10.05;;;4.30;;
48925;SDS011;39838;59.938;30.642;2022-07-29T04:58:18;9.63;;;4.25;;
48925;SDS011;39838;59.938;30.642;2022-07-29T05:00:45;8.07;;;4.13;;
48925;SDS011;39838;59.938;30.642;2022-07-29T05:03:14;9.45;;;4.00;;
48925;SDS011;39838;59.938;30.642;2022-07-29T05:05:41;8.40;;;4.10;;
48925;SDS011;39838;59.938;30.642;2022-07-29T05:08:08;10.35;;;4.85;;
48925;SDS011;39838;59.938;30.642;2022-07-29T05:10:35;8.70;;;3.80;;
48925;SDS011;39838;59.938;30.642;2022-07-29T05:13:03;6.75;;;3.40;;
48925;SDS011;39838;59.938;30.642;2022-07-29T05:15:31;5.53;;;3.20;;
48925;SDS011;39838;59.938;30.642;2022-07-29T05:17:59;6.80;;;3.55;;
48925;SDS011;39838;59.938;30.642;2022-07-29T05:20:28;5.75;;;3.70;;
48925;SDS011;39838;59.938;30.642;2022-07-29T05:22:55;4.68;;;2.95;;
48925;SDS011;39838;59.938;30.642;2022-07-29T05:25:23;6.25;;;3.65;;
48925;SDS011;39838;59.938;30.642;2022-07-29T05:27:52;7.85;;;3.33;;
48925;SDS011;39838;59.938;30.642;2022-07-29T05:30:19;7.65;;;3.50;;
48925;SDS011;39838;59.938;30.642;2022-07-29T05:32:46;5.22;;;3.38;;
48925;SDS011;39838;59.938;30.642;2022-07-29T05:35:14;6.18;;;3.15;;
48925;SDS011;39838;59.938;30.642;2022-07-29T05:37:43;5.68;;;2.90;;
48925;SDS011;39838;59.938;30.642;2022-07-29T05:40:10;4.03;;;2.55;;
48925;SDS011;39838;59.938;30.642;2022-07-29T05:42:37;3.53;;;2.63;;
48925;SDS011;39838;59.938;30.642;2022-07-29T05:45:05;9.15;;;2.50;;
48925;SDS011;39838;59.938;30.642;2022-07-29T05:47:32;7.20;;;2.80;;
48925;SDS011;39838;59.938;30.642;2022-07-29T05:50:00;7.10;;;2.53;;
48925;SDS011;39838;59.938;30.642;2022-07-29T05:52:27;5.55;;;2.55;;
48925;SDS011;39838;59.938;30.642;2022-07-29T05:54:55;3.17;;;2.40;;
48925;SDS011;39838;59.938;30.642;2022-07-29T05:57:23;4.15;;;2.30;;
48925;SDS011;39838;59.938;30.642;2022-07-29T05:59:50;3.67;;;2.50;;
48925;SDS011;39838;59.938;30.642;2022-07-29T06:19:09;5.72;;;2.40;;
48925;SDS011;39838;59.938;30.642;2022-07-29T06:21:36;6.40;;;2.47;;
48925;SDS011;39838;59.938;30.642;2022-07-29T06:24:07;3.45;;;1.85;;
48925;SDS011;39838;59.938;30.642;2022-07-29T06:26:34;5.43;;;2.00;;
48925;SDS011;39838;59.938;30.642;2022-07-29T06:29:01;3.13;;;1.45;;
48925;SDS011;39838;59.938;30.642;2022-07-29T06:31:28;3.78;;;1.63;;
48925;SDS011;39838;59.938;30.642;2022-07-29T06:33:55;2.00;;;1.52;;
48925;SDS011;39838;59.938;30.642;2022-07-29T06:36:24;3.05;;;1.60;;
48925;SDS011;39838;59.938;30.642;2022-07-29T06:38:51;2.42;;;1.70;;
48925;SDS011;39838;59.938;30.642;2022-07-29T06:41:18;3.90;;;1.48;;
48925;SDS011;39838;59.938;30.642;2022-07-29T06:43:45;3.17;;;1.42;;
48925;SDS011;39838;59.938;30.642;2022-07-29T06:46:14;2.25;;;1.30;;
48925;SDS011;39838;59.938;30.642;2022-07-29T06:48:42;3.35;;;1.67;;
48925;SDS011;39838;59.938;30.642;2022-07-29T06:51:11;4.25;;;1.48;;
48925;SDS011;39838;59.938;30.642;2022-07-29T06:53:39;7.80;;;1.63;;
48925;SDS011;39838;59.938;30.642;2022-07-29T06:56:06;3.28;;;1.58;;
48925;SDS011;39838;59.938;30.642;2022-07-29T06:58:35;3.28;;;1.40;;
48925;SDS011;39838;59.938;30.642;2022-07-29T07:01:03;1.75;;;1.40;;
48925;SDS011;39838;59.938;30.642;2022-07-29T07:03:31;3.90;;;1.60;;
48925;SDS011;39838;59.938;30.642;2022-07-29T07:05:58;2.75;;;1.20;;
48925;SDS011;39838;59.938;30.642;2022-07-29T07:08:25;1.65;;;1.50;;
48925;SDS011;39838;59.938;30.642;2022-07-29T07:10:54;2.50;;;1.60;;
48925;SDS011;39838;59.938;30.642;2022-07-29T07:13:22;3.20;;;1.67;;
48925;SDS011;39838;59.938;30.642;2022-07-29T07:15:49;2.20;;;1.50;;
48925;SDS011;39838;59.938;30.642;2022-07-29T07:18:17;3.08;;;1.70;;
48925;SDS011;39838;59.938;30.642;2022-07-29T07:20:44;2.90;;;1.75;;
48925;SDS011;39838;59.938;30.642;2022-07-29T07:23:12;4.35;;;1.85;;
48925;SDS011;39838;59.938;30.642;2022-07-29T07:25:39;2.20;;;1.40;;
48925;SDS011;39838;59.938;30.642;2022-07-29T07:28:08;1.90;;;1.38;;
48925;SDS011;39838;59.938;30.642;2022-07-29T07:30:35;3.20;;;1.90;;
48925;SDS011;39838;59.938;30.642;2022-07-29T07:33:02;3.05;;;1.70;;
48925;SDS011;39838;59.938;30.642;2022-07-29T07:35:30;5.47;;;2.13;;
48925;SDS011;39838;59.938;30.642;2022-07-29T07:37:57;3.83;;;1.63;;
48925;SDS011;39838;59.938;30.642;2022-07-29T07:40:24;4.70;;;1.70;;
48925;SDS011;39838;59.938;30.642;2022-07-29T07:42:52;3.50;;;1.70;;
48925;SDS011;39838;59.938;30.642;2022-07-29T07:45:20;3.83;;;1.77;;
48925;SDS011;39838;59.938;30.642;2022-07-29T07:47:47;3.17;;;1.73;;
48925;SDS011;39838;59.938;30.642;2022-07-29T07:50:14;5.13;;;1.60;;
48925;SDS011;39838;59.938;30.642;2022-07-29T07:52:46;3.33;;;1.70;;
48925;SDS011;39838;59.938;30.642;2022-07-29T07:55:14;3.40;;;1.83;;
48925;SDS011;39838;59.938;30.642;2022-07-29T07:57:41;3.15;;;1.70;;
48925;SDS011;39838;59.938;30.642;2022-07-29T08:00:09;4.78;;;1.70;;
48925;SDS011;39838;59.938;30.642;2022-07-29T08:02:38;5.03;;;1.70;;
48925;SDS011;39838;59.938;30.642;2022-07-29T08:05:06;6.82;;;2.00;;
48925;SDS011;39838;59.938;30.642;2022-07-29T08:07:33;2.53;;;1.73;;
48925;SDS011;39838;59.938;30.642;2022-07-29T08:10:00;2.90;;;1.70;;
48925;SDS011;39838;59.938;30.642;2022-07-29T08:12:28;3.67;;;1.40;;
48925;SDS011;39838;59.938;30.642;2022-07-29T08:14:57;4.82;;;1.73;;
48925;SDS011;39838;59.938;30.642;2022-07-29T08:17:25;2.13;;;1.50;;
48925;SDS011;39838;59.938;30.642;2022-07-29T08:19:53;2.17;;;1.75;;
48925;SDS011;39838;59.938;30.642;2022-07-29T08:22:20;4.93;;;1.80;;
48925;SDS011;39838;59.938;30.642;2022-07-29T08:24:47;4.88;;;1.80;;
48925;SDS011;39838;59.938;30.642;2022-07-29T08:27:19;2.88;;;1.70;;
48925;SDS011;39838;59.938;30.642;2022-07-29T08:29:46;8.80;;;2.35;;
48925;SDS011;39838;59.938;30.642;2022-07-29T08:32:14;3.15;;;1.70;;
48925;SDS011;39838;59.938;30.642;2022-07-29T08:34:41;3.30;;;1.70;;
48925;SDS011;39838;59.938;30.642;2022-07-29T08:37:12;5.68;;;2.17;;
48925;SDS011;39838;59.938;30.642;2022-07-29T08:39:39;6.68;;;1.90;;
48925;SDS011;39838;59.938;30.642;2022-07-29T08:42:06;3.35;;;1.90;;
48925;SDS011;39838;59.938;30.642;2022-07-29T08:44:34;2.05;;;1.67;;
48925;SDS011;39838;59.938;30.642;2022-07-29T08:47:05;2.05;;;1.60;;
48925;SDS011;39838;59.938;30.642;2022-07-29T08:49:34;4.38;;;1.65;;
48925;SDS011;39838;59.938;30.642;2022-07-29T08:52:02;2.35;;;1.60;;
48925;SDS011;39838;59.938;30.642;2022-07-29T08:54:34;2.83;;;1.50;;
48925;SDS011;39838;59.938;30.642;2022-07-29T08:57:01;6.68;;;1.75;;
48925;SDS011;39838;59.938;30.642;2022-07-29T08:59:28;2.25;;;1.75;;
48925;SDS011;39838;59.938;30.642;2022-07-29T09:01:57;2.40;;;1.63;;
48925;SDS011;39838;59.938;30.642;2022-07-29T09:04:27;3.53;;;1.80;;
48925;SDS011;39838;59.938;30.642;2022-07-29T09:07:04;3.38;;;1.70;;
48925;SDS011;39838;59.938;30.642;2022-07-29T09:09:34;3.63;;;1.50;;
48925;SDS011;39838;59.938;30.642;2022-07-29T09:12:03;1.95;;;1.40;;
48925;SDS011;39838;59.938;30.642;2022-07-29T09:14:31;4.60;;;1.35;;
48925;SDS011;39838;59.938;30.642;2022-07-29T09:16:58;5.50;;;1.75;;
48925;SDS011;39838;59.938;30.642;2022-07-29T09:19:26;2.70;;;1.60;;
48925;SDS011;39838;59.938;30.642;2022-07-29T09:21:59;6.65;;;2.00;;
48925;SDS011;39838;59.938;30.642;2022-07-29T09:24:37;2.08;;;1.55;;
48925;SDS011;39838;59.938;30.642;2022-07-29T09:27:07;3.10;;;1.90;;
48925;SDS011;39838;59.938;30.642;2022-07-29T09:29:36;4.03;;;1.63;;
48925;SDS011;39838;59.938;30.642;2022-07-29T09:32:07;6.22;;;1.77;;
48925;SDS011;39838;59.938;30.642;2022-07-29T09:34:36;3.15;;;2.05;;
48925;SDS011;39838;59.938;30.642;2022-07-29T09:37:03;3.55;;;2.00;;
48925;SDS011;39838;59.938;30.642;2022-07-29T09:39:32;3.95;;;1.73;;
48925;SDS011;39838;59.938;30.642;2022-07-29T09:42:03;4.63;;;2.25;;
48925;SDS011;39838;59.938;30.642;2022-07-29T09:44:41;4.28;;;1.83;;
48925;SDS011;39838;59.938;30.642;2022-07-29T09:47:09;2.78;;;1.55;;
48925;SDS011;39838;59.938;30.642;2022-07-29T09:49:49;4.05;;;1.70;;
48925;SDS011;39838;59.938;30.642;2022-07-29T09:52:17;5.65;;;1.65;;
48925;SDS011;39838;59.938;30.642;2022-07-29T09:54:45;2.80;;;1.30;;
48925;SDS011;39838;59.938;30.642;2022-07-29T09:57:23;3.92;;;1.80;;
48925;SDS011;39838;59.938;30.642;2022-07-29T09:59:58;4.80;;;2.03;;
48925;SDS011;39838;59.938;30.642;2022-07-29T10:02:30;3.08;;;1.80;;
48925;SDS011;39838;59.938;30.642;2022-07-29T10:04:58;4.53;;;1.77;;
48925;SDS011;39838;59.938;30.642;2022-07-29T10:07:26;5.90;;;2.10;;
48925;SDS011;39838;59.938;30.642;2022-07-29T10:10:09;6.63;;;2.00;;
48925;SDS011;39838;59.938;30.642;2022-07-29T10:12:49;6.15;;;1.90;;
48925;SDS011;39838;59.938;30.642;2022-07-29T10:15:18;3.58;;;1.98;;
48925;SDS011;39838;59.938;30.642;2022-07-29T10:17:45;5.38;;;2.00;;
48925;SDS011;39838;59.938;30.642;2022-07-29T10:20:14;4.45;;;1.50;;
48925;SDS011;39838;59.938;30.642;2022-07-29T10:22:42;6.05;;;1.73;;
48925;SDS011;39838;59.938;30.642;2022-07-29T10:25:12;14.43;;;1.90;;
48925;SDS011;39838;59.938;30.642;2022-07-29T10:41:13;6.50;;;2.50;;
48925;SDS011;39838;59.938;30.642;2022-07-29T10:43:53;4.00;;;2.33;;
48925;SDS011;39838;59.938;30.642;2022-07-29T10:46:21;7.95;;;2.10;;
48925;SDS011;39838;59.938;30.642;2022-07-29T10:49:09;3.60;;;2.45;;
48925;SDS011;39838;59.938;30.642;2022-07-29T10:51:51;6.10;;;2.60;;
48925;SDS011;39838;59.938;30.642;2022-07-29T10:57:25;3.47;;;1.80;;
48925;SDS011;39838;59.938;30.642;2022-07-29T11:02:58;5.55;;;1.85;;
48925;SDS011;39838;59.938;30.642;2022-07-29T11:05:26;6.05;;;1.60;;
48925;SDS011;39838;59.938;30.642;2022-07-29T11:13:56;6.95;;;1.42;;
48925;SDS011;39838;59.938;30.642;2022-07-29T11:16:23;8.55;;;1.70;;
48925;SDS011;39838;59.938;30.642;2022-07-29T11:24:15;4.85;;;1.25;;
48925;SDS011;39838;59.938;30.642;2022-07-29T11:26:43;4.93;;;1.08;;
48925;SDS011;39838;59.938;30.642;2022-07-29T11:29:18;11.30;;;1.23;;
48925;SDS011;39838;59.938;30.642;2022-07-29T11:31:49;5.68;;;1.58;;
48925;SDS011;39838;59.938;30.642;2022-07-29T11:34:21;6.13;;;1.50;;
48925;SDS011;39838;59.938;30.642;2022-07-29T11:40:08;3.42;;;1.40;;
48925;SDS011;39838;59.938;30.642;2022-07-29T11:42:37;6.88;;;1.40;;
48925;SDS011;39838;59.938;30.642;2022-07-29T11:45:10;4.78;;;1.40;;
48925;SDS011;39838;59.938;30.642;2022-07-29T11:47:47;7.72;;;1.60;;
48925;SDS011;39838;59.938;30.642;2022-07-29T11:50:15;4.33;;;1.20;;
48925;SDS011;39838;59.938;30.642;2022-07-29T11:52:44;6.60;;;1.50;;
48925;SDS011;39838;59.938;30.642;2022-07-29T11:55:13;19.95;;;1.75;;
48925;SDS011;39838;59.938;30.642;2022-07-29T11:57:45;6.72;;;1.38;;
48925;SDS011;39838;59.938;30.642;2022-07-29T12:00:26;3.70;;;1.30;;
48925;SDS011;39838;59.938;30.642;2022-07-29T12:02:56;6.05;;;1.60;;
48925;SDS011;39838;59.938;30.642;2022-07-29T12:05:31;3.05;;;1.35;;
48925;SDS011;39838;59.938;30.642;2022-07-29T12:08:10;4.90;;;1.48;;
48925;SDS011;39838;59.938;30.642;2022-07-29T12:10:39;3.60;;;1.50;;
48925;SDS011;39838;59.938;30.642;2022-07-29T12:13:07;5.13;;;1.50;;
48925;SDS011;39838;59.938;30.642;2022-07-29T12:15:38;10.43;;;1.35;;
48925;SDS011;39838;59.938;30.642;2022-07-29T12:18:09;3.80;;;1.40;;
48925;SDS011;39838;59.938;30.642;2022-07-29T12:20:44;7.97;;;1.50;;
48925;SDS011;39838;59.938;30.642;2022-07-29T12:23:11;3.40;;;1.50;;
48925;SDS011;39838;59.938;30.642;2022-07-29T12:25:39;5.55;;;1.48;;
48925;SDS011;39838;59.938;30.642;2022-07-29T12:28:07;5.13;;;1.58;;
48925;SDS011;39838;59.938;30.642;2022-07-29T12:30:41;9.32;;;1.55;;
48925;SDS011;39838;59.938;30.642;2022-07-29T12:33:13;6.00;;;1.50;;
48925;SDS011;39838;59.938;30.642;2022-07-29T12:35:43;5.45;;;1.48;;
48925;SDS011;39838;59.938;30.642;2022-07-29T12:38:12;6.75;;;1.40;;
48925;SDS011;39838;59.938;30.642;2022-07-29T12:40:40;8.70;;;1.30;;
48925;SDS011;39838;59.938;30.642;2022-07-29T12:43:08;7.03;;;1.25;;
48925;SDS011;39838;59.938;30.642;2022-07-29T12:45:35;4.45;;;1.20;;
48925;SDS011;39838;59.938;30.642;2022-07-29T12:48:04;7.13;;;1.42;;
48925;SDS011;39838;59.938;30.642;2022-07-29T12:50:33;4.35;;;1.20;;
48925;SDS011;39838;59.938;30.642;2022-07-29T12:53:10;7.63;;;1.55;;
48925;SDS011;39838;59.938;30.642;2022-07-29T12:55:39;3.17;;;1.05;;
48925;SDS011;39838;59.938;30.642;2022-07-29T12:58:10;5.18;;;0.90;;
48925;SDS011;39838;59.938;30.642;2022-07-29T13:00:37;3.25;;;1.50;;
48925;SDS011;39838;59.938;30.642;2022-07-29T13:03:05;12.23;;;1.40;;
48925;SDS011;39838;59.938;30.642;2022-07-29T13:05:39;6.65;;;1.35;;
48925;SDS011;39838;59.938;30.642;2022-07-29T13:08:10;11.82;;;1.55;;
48925;SDS011;39838;59.938;30.642;2022-07-29T13:10:38;9.43;;;1.30;;
48925;SDS011;39838;59.938;30.642;2022-07-29T13:13:06;8.93;;;1.20;;
48925;SDS011;39838;59.938;30.642;2022-07-29T13:15:35;4.13;;;1.33;;
48925;SDS011;39838;59.938;30.642;2022-07-29T13:18:02;6.55;;;1.50;;
48925;SDS011;39838;59.938;30.642;2022-07-29T13:20:31;4.63;;;1.55;;
48925;SDS011;39838;59.938;30.642;2022-07-29T13:22:59;2.08;;;1.08;;
48925;SDS011;39838;59.938;30.642;2022-07-29T13:25:27;6.47;;;1.50;;
48925;SDS011;39838;59.938;30.642;2022-07-29T13:27:55;5.57;;;1.30;;
48925;SDS011;39838;59.938;30.642;2022-07-29T13:30:22;3.40;;;1.20;;
48925;SDS011;39838;59.938;30.642;2022-07-29T13:32:50;10.90;;;1.83;;
48925;SDS011;39838;59.938;30.642;2022-07-29T13:35:18;4.20;;;1.30;;
48925;SDS011;39838;59.938;30.642;2022-07-29T13:37:47;7.10;;;1.50;;
48925;SDS011;39838;59.938;30.642;2022-07-29T13:40:13;5.85;;;0.80;;
48925;SDS011;39838;59.938;30.642;2022-07-29T13:42:41;5.00;;;0.95;;
48925;SDS011;39838;59.938;30.642;2022-07-29T13:45:09;6.05;;;2.20;;
48925;SDS011;39838;59.938;30.642;2022-07-29T13:47:37;5.05;;;1.30;;
48925;SDS011;39838;59.938;30.642;2022-07-29T13:50:05;9.18;;;1.30;;
48925;SDS011;39838;59.938;30.642;2022-07-29T13:52:35;8.00;;;1.55;;
48925;SDS011;39838;59.938;30.642;2022-07-29T13:55:06;4.95;;;1.20;;
48925;SDS011;39838;59.938;30.642;2022-07-29T13:57:34;7.95;;;1.63;;
48925;SDS011;39838;59.938;30.642;2022-07-29T14:00:01;4.35;;;0.95;;
48925;SDS011;39838;59.938;30.642;2022-07-29T14:02:28;7.07;;;1.90;;
48925;SDS011;39838;59.938;30.642;2022-07-29T14:04:55;7.70;;;1.13;;
48925;SDS011;39838;59.938;30.642;2022-07-29T14:07:22;5.85;;;1.15;;
48925;SDS011;39838;59.938;30.642;2022-07-29T14:09:49;3.42;;;1.15;;
48925;SDS011;39838;59.938;30.642;2022-07-29T14:15:09;5.43;;;1.20;;
48925;SDS011;39838;59.938;30.642;2022-07-29T14:17:37;4.78;;;1.10;;
48925;SDS011;39838;59.938;30.642;2022-07-29T14:20:04;1.95;;;1.10;;
48925;SDS011;39838;59.938;30.642;2022-07-29T14:22:31;4.15;;;1.23;;
48925;SDS011;39838;59.938;30.642;2022-07-29T14:24:58;5.75;;;1.20;;
48925;SDS011;39838;59.938;30.642;2022-07-29T14:27:25;6.18;;;1.30;;
48925;SDS011;39838;59.938;30.642;2022-07-29T14:29:53;5.20;;;0.90;;
48925;SDS011;39838;59.938;30.642;2022-07-29T14:32:20;4.65;;;1.42;;
48925;SDS011;39838;59.938;30.642;2022-07-29T14:34:48;3.13;;;1.10;;
48925;SDS011;39838;59.938;30.642;2022-07-29T14:37:16;6.18;;;1.25;;
48925;SDS011;39838;59.938;30.642;2022-07-29T14:39:43;3.92;;;0.93;;
48925;SDS011;39838;59.938;30.642;2022-07-29T14:42:10;2.83;;;0.98;;
48925;SDS011;39838;59.938;30.642;2022-07-29T14:44:38;5.45;;;1.15;;
48925;SDS011;39838;59.938;30.642;2022-07-29T14:47:07;4.20;;;0.90;;
48925;SDS011;39838;59.938;30.642;2022-07-29T14:49:35;2.42;;;0.85;;
48925;SDS011;39838;59.938;30.642;2022-07-29T14:52:02;7.75;;;1.17;;
48925;SDS011;39838;59.938;30.642;2022-07-29T14:54:29;3.83;;;0.77;;
48925;SDS011;39838;59.938;30.642;2022-07-29T14:56:56;3.83;;;1.00;;
48925;SDS011;39838;59.938;30.642;2022-07-29T14:59:23;4.07;;;0.70;;
48925;SDS011;39838;59.938;30.642;2022-07-29T15:01:50;9.60;;;1.42;;
48925;SDS011;39838;59.938;30.642;2022-07-29T15:04:18;2.15;;;0.70;;
48925;SDS011;39838;59.938;30.642;2022-07-29T15:06:45;1.77;;;0.70;;
48925;SDS011;39838;59.938;30.642;2022-07-29T15:09:12;4.93;;;1.10;;
48925;SDS011;39838;59.938;30.642;2022-07-29T15:11:39;2.50;;;0.70;;
48925;SDS011;39838;59.938;30.642;2022-07-29T15:14:06;4.78;;;0.70;;
48925;SDS011;39838;59.938;30.642;2022-07-29T15:16:34;1.45;;;0.50;;
48925;SDS011;39838;59.938;30.642;2022-07-29T15:19:01;2.30;;;0.70;;
48925;SDS011;39838;59.938;30.642;2022-07-29T15:21:30;3.05;;;0.90;;
48925;SDS011;39838;59.938;30.642;2022-07-29T15:23:56;2.95;;;0.75;;
48925;SDS011;39838;59.938;30.642;2022-07-29T15:26:24;2.15;;;0.82;;
48925;SDS011;39838;59.938;30.642;2022-07-29T15:28:51;3.30;;;1.10;;
48925;SDS011;39838;59.938;30.642;2022-07-29T15:31:20;5.60;;;1.48;;
48925;SDS011;39838;59.938;30.642;2022-07-29T15:33:47;3.80;;;1.23;;
48925;SDS011;39838;59.938;30.642;2022-07-29T15:36:14;2.70;;;1.20;;
48925;SDS011;39838;59.938;30.642;2022-07-29T15:38:42;2.92;;;1.23;;